Terminal Aerodrome Forecast
Issued by NWS

Home | Current Version | Previous Version | Text Only | Print | Product List | Glossary On
Versions: 1 2 3 4 5 6 7 8 9 10 11 12 13 14 15 16 17 18 19 20 21 22 23 24 25 26 27 28 29
000
FTUS43 KDVN 261901 AAA
TAFCID
TAF AMD
KCID 261901Z 2619/2718 07012KT P6SM SCT020
     FM262100 14010KT P6SM BKN040
     FM270800 11005KT 4SM BR BKN025
     FM271100 12005KT 1SM BR SCT006 BKN012
     FM271600 13011KT 4SM BR BKN020=

USA.gov is the U.S. government's official web portal to all federal, state and local government web resources and services.